Belfast, United Kingdom

8:30 AM GMT on February 08, 2016 (GMT +0000)
CREGAGH/RAVENHILL | | Change Station
CLOSE
Current Station
Personal Weather Station
Location: Belfast,
Elevation: 30 ft
Nearby Weather Stations

Elev 30 ft 54.58 °N, 5.91 °W | Updated 9 seconds ago

Mostly Cloudy
Mostly Cloudy
43.3 °F
Feels Like 41 °F
N
4.0
Wind Variable Wind from WSW
Gusts 7.4 mph

Today
High -- | Low -- °F
--% Chance of Precip.
Yesterday
High -- | Low -- °F
Precip. -- in
Pressure 28.56 in
Visibility 6.2 miles
Clouds Few 800 ft
Mostly Cloudy 1500 ft
Windchill 41 °F
Dew Point 37 °F
Humidity 79%
Rainfall 0.00 in
Snow Depth Not available.
8:00 AM 5:15 PM
Waning Crescent, 0% visible
METAR EGAC 080820Z 22011KT 9999 FEW008 BKN015 06/01 Q0967
Pressure 28.56 in
Visibility 6.2 miles
Clouds Few 800 ft
Mostly Cloudy 1500 ft
Windchill 41 °F
Dew Point 37 °F
Humidity 79%
Rainfall 0.00 in
Snow Depth Not available.
8:00 AM 5:15 PM
Waning Crescent, 0% visible
METAR EGAC 080820Z 22011KT 9999 FEW008 BKN015 06/01 Q0967

10-Day Weather Forecast

Almanac

Astronomy

Feb. 08, 2016 Rise Set
Actual Time
Civil Twilight
Nautical Twilight
Astronomical Twilight
Moon
Length of Visible Light
Length of Day
Tomorrow will be .
, % of the Moon is Illuminated

Today's Extremes

Country Highs Country Lows

Community

WunderPhotos

Upload Photos

1,891,412 photos uploaded!

WunderBlog® & News

Nearby

Air Quality

  Air Quality AQ Index Pollutant
Not available.

Snow Depth

Station Depth Elevation

Earthquake Activity

City Distance Mag. Time & Date
Minimum magnitude displayed is 2.5.

Coastal Water Temperatures

Place Temperature

Stations

Nearby Weather Stations

Station Location Temp. Windchill Dew Point Humidity Wind Precip. Elev Updated Type